Time;durP1;ratioP1;P1;durP2;ratioP2;P2;SDS_P1;SDS_P2;PMS_P1;PMS_P2;Temp;Humidity;BMP_temperature;BMP_pressure;BME280_temperature;BME280_humidity;BME280_pressure;Samples;Min_cycle;Max_cycle;Signal;HPM_P1;HPM_P2
2022/09/20 00:01:25;;;;;;;10.07;4.50;;;;;;;10.47;100.00;100170.35;1713843;83;21302;-56
2022/09/20 00:03:54;;;;;;;7.57;4.70;;;;;;;10.50;100.00;100166.58;1713621;83;22235;-66
2022/09/20 00:06:23;;;;;;;7.87;4.10;;;;;;;10.45;100.00;100166.31;1714346;83;21184;-55
2022/09/20 00:08:50;;;;;;;7.93;4.23;;;;;;;10.44;100.00;100168.61;1713844;83;21342;-56
2022/09/20 00:11:24;;;;;;;8.50;4.47;;;;;;;10.41;100.00;100168.47;1712956;83;21330;-64
2022/09/20 00:13:54;;;;;;;6.67;3.90;;;;;;;10.41;100.00;100168.47;1713473;83;21191;-64
2022/09/20 00:16:27;;;;;;;6.10;3.63;;;;;;;10.40;100.00;100162.16;1713436;83;21237;-55
2022/09/20 00:18:56;;;;;;;7.20;3.80;;;;;;;10.36;100.00;100161.71;1714348;83;21358;-62
2022/09/20 00:21:26;;;;;;;6.13;3.30;;;;;;;10.24;100.00;100166.56;1714104;83;21290;-55
2022/09/20 00:23:56;;;;;;;7.22;3.30;;;;;;;10.19;100.00;100166.78;1714174;83;21241;-55
2022/09/20 00:26:24;;;;;;;6.33;3.10;;;;;;;10.16;100.00;100167.17;1713055;83;21545;-58
2022/09/20 00:28:51;;;;;;;4.77;2.40;;;;;;;10.19;100.00;100169.38;1713538;83;21418;-60
2022/09/20 00:31:19;;;;;;;6.07;2.53;;;;;;;10.06;100.00;100169.23;1714008;83;21307;-56
2022/09/20 00:36:33;;;;;;;4.33;2.20;;;;;;;10.03;100.00;100165.19;1713377;83;21489;-58
2022/09/20 00:39:02;;;;;;;5.87;2.17;;;;;;;10.09;100.00;100170.98;1714054;83;21281;-56
2022/09/20 00:41:30;;;;;;;4.17;2.27;;;;;;;10.07;100.00;100174.75;1714086;83;21654;-56
2022/09/20 00:43:57;;;;;;;4.17;2.13;;;;;;;10.02;100.00;100171.40;1713589;83;21203;-56
2022/09/20 00:46:40;;;;;;;4.17;2.37;;;;;;;9.94;100.00;100167.59;1714066;83;21985;-62
2022/09/20 00:49:18;;;;;;;5.30;1.90;;;;;;;9.89;100.00;100165.54;1713582;83;21254;-56
2022/09/20 00:51:54;;;;;;;4.63;2.00;;;;;;;9.84;100.00;100156.14;1714234;83;21300;-56
2022/09/20 00:54:21;;;;;;;8.10;2.00;;;;;;;9.81;100.00;100160.43;1713769;83;21377;-58
2022/09/20 00:56:49;;;;;;;4.33;2.30;;;;;;;9.77;100.00;100161.75;1714071;83;21307;-57
2022/09/20 00:59:30;;;;;;;5.53;3.27;;;;;;;9.72;100.00;100161.49;1713723;83;21284;-67
2022/09/20 01:02:04;;;;;;;7.27;3.27;;;;;;;9.68;100.00;100162.84;1714118;83;20999;-67
2022/09/20 01:04:32;;;;;;;8.73;2.90;;;;;;;9.67;100.00;100160.73;1713936;83;21353;-58
2022/09/20 01:07:01;;;;;;;6.37;3.13;;;;;;;9.70;100.00;100159.58;1690029;83;20974;-58
2022/09/20 01:09:29;;;;;;;11.07;3.17;;;;;;;9.65;100.00;100156.69;1713993;83;21009;-58
2022/09/20 01:11:56;;;;;;;7.77;3.23;;;;;;;9.61;100.00;100163.23;1713986;83;22585;-60
2022/09/20 01:14:24;;;;;;;7.23;3.50;;;;;;;9.59;100.00;100156.92;1713895;83;21362;-57
2022/09/20 01:16:53;;;;;;;6.57;3.27;;;;;;;9.53;100.00;100163.33;1714151;83;21312;-58
2022/09/20 01:19:29;;;;;;;5.17;2.87;;;;;;;9.69;100.00;100159.24;1714132;83;21245;-68
2022/09/20 01:21:56;;;;;;;5.73;3.33;;;;;;;9.58;100.00;100156.59;1713904;83;21235;-68
2022/09/20 01:24:40;;;;;;;6.10;3.30;;;;;;;9.50;100.00;100164.48;1714016;83;21274;-58
2022/09/20 01:27:36;;;;;;;6.77;3.10;;;;;;;9.49;100.00;100171.48;1696077;83;21170;-68
2022/09/20 01:30:09;;;;;;;5.10;2.97;;;;;;;9.53;100.00;100173.73;1713907;83;21056;-59
2022/09/20 01:32:53;;;;;;;5.15;3.20;;;;;;;9.59;100.00;100172.53;1714133;83;21214;-58
2022/09/20 01:35:20;;;;;;;7.00;3.30;;;;;;;9.64;100.00;100161.58;1689369;83;21383;-64
2022/09/20 01:38:13;;;;;;;6.67;3.53;;;;;;;9.62;100.00;100155.73;1713473;83;21639;-56
2022/09/20 01:41:17;;;;;;;7.13;4.00;;;;;;;9.55;100.00;100166.57;1713387;83;21731;-56
2022/09/20 01:43:55;;;;;;;7.27;3.50;;;;;;;9.53;100.00;100160.72;1713567;83;21366;-56
2022/09/20 01:46:33;;;;;;;7.03;3.17;;;;;;;9.51;100.00;100157.01;1714003;83;21216;-58
2022/09/20 01:49:26;;;;;;;5.57;3.50;;;;;;;9.71;100.00;100159.88;1714364;83;21464;-56
2022/09/20 01:52:34;;;;;;;6.80;3.47;;;;;;;9.86;100.00;100156.78;1713906;83;21348;-57
2022/09/20 01:55:24;;;;;;;5.80;3.13;;;;;;;9.80;100.00;100154.89;1713800;83;21636;-57
2022/09/20 01:58:25;;;;;;;5.50;3.30;;;;;;;9.86;100.00;100155.48;1713776;83;22311;-56
2022/09/20 02:01:14;;;;;;;;;;;;;;;9.87;100.00;100161.49;1715994;83;21465;-63
2022/09/20 02:03:58;;;;;;;6.97;3.43;;;;;;;9.67;100.00;100153.42;1713568;83;20149;-67
2022/09/20 02:07:08;;;;;;;9.73;4.08;;;;;;;9.65;100.00;100159.28;1713433;83;21980;-65
2022/09/20 02:10:10;;;;;;;7.33;3.40;;;;;;;9.59;100.00;100160.02;1714136;83;21456;-56
2022/09/20 02:13:16;;;;;;;7.13;3.13;;;;;;;9.49;100.00;100163.67;1714222;83;21200;-65
2022/09/20 02:16:31;;;;;;;6.00;3.30;;;;;;;9.53;100.00;100159.42;1714277;83;21352;-56
2022/09/20 02:19:17;;;;;;;8.07;3.70;;;;;;;9.57;100.00;100149.77;1714191;83;21381;-56
2022/09/20 02:22:15;;;;;;;7.23;3.50;;;;;;;9.56;100.00;100144.76;1713576;83;21290;-57
2022/09/20 02:25:13;;;;;;;9.07;3.70;;;;;;;9.72;100.00;100147.98;1713959;83;21190;-56
2022/09/20 02:28:21;;;;;;;8.53;3.50;;;;;;;9.76;100.00;100147.12;1713723;83;21329;-57
2022/09/20 02:31:32;;;;;;;7.70;3.80;;;;;;;9.88;100.00;100148.28;1713806;83;21179;-57
2022/09/20 02:34:33;;;;;;;7.50;3.07;;;;;;;9.87;100.00;100144.06;1714526;83;21391;-66
2022/09/20 02:37:29;;;;;;;7.65;3.30;;;;;;;10.19;100.00;100143.34;1713454;83;21323;-59
2022/09/20 02:40:32;;;;;;;4.30;2.80;;;;;;;9.98;100.00;100138.90;1713987;83;22047;-58
2022/09/20 02:43:25;;;;;;;6.07;3.30;;;;;;;9.92;100.00;100136.52;1713960;83;21230;-57
2022/09/20 02:46:28;;;;;;;5.12;2.65;;;;;;;9.94;100.00;100135.85;1713424;83;21156;-66
2022/09/20 02:49:10;;;;;;;8.53;3.30;;;;;;;9.94;100.00;100138.45;1714070;83;21072;-56
2022/09/20 02:51:51;;;;;;;5.20;2.90;;;;;;;10.04;100.00;100144.70;1714423;83;23225;-56
2022/09/20 02:54:21;;;;;;;;;;;;;;;10.12;100.00;100147.69;1716748;83;21096;-56
2022/09/20 02:57:15;;;;;;;4.80;2.70;;;;;;;10.06;100.00;100141.89;1714329;83;20153;-57
2022/09/20 02:59:53;;;;;;;4.67;2.50;;;;;;;9.99;100.00;100143.11;1713624;83;21257;-57
2022/09/20 03:02:30;;;;;;;5.70;2.70;;;;;;;10.05;100.00;100140.29;1714490;83;21747;-56
2022/09/20 03:05:14;;;;;;;5.40;2.30;;;;;;;10.02;100.00;100134.14;1714106;83;22182;-56
2022/09/20 03:08:12;;;;;;;5.30;3.07;;;;;;;10.11;100.00;100144.75;1713746;83;21806;-56
2022/09/20 03:11:35;;;;;;;6.33;2.07;;;;;;;10.13;100.00;100146.69;1713727;83;21602;-63
2022/09/20 03:14:21;;;;;;;5.43;2.50;;;;;;;10.17;100.00;100146.64;1713294;83;21104;-58
2022/09/20 03:17:28;;;;;;;4.33;2.90;;;;;;;10.22;100.00;100152.90;1714023;83;21368;-57
2022/09/20 03:20:21;;;;;;;4.30;2.60;;;;;;;10.33;100.00;100147.74;1714093;83;21364;-57
2022/09/20 03:23:26;;;;;;;6.43;2.80;;;;;;;10.46;100.00;100141.89;1713541;83;21311;-58
2022/09/20 03:26:29;;;;;;;6.13;2.30;;;;;;;10.71;100.00;100147.53;1712405;83;21249;-56
2022/09/20 03:29:08;;;;;;;6.17;2.50;;;;;;;11.15;100.00;100147.81;1714086;83;21213;-58
2022/09/20 03:32:20;;;;;;;3.97;2.20;;;;;;;11.57;100.00;100142.97;1689155;83;21453;-58
2022/09/20 03:35:01;;;;;;;4.63;2.33;;;;;;;12.05;100.00;100133.09;1712667;83;21755;-64
2022/09/20 03:38:05;;;;;;;6.45;2.35;;;;;;;12.63;100.00;100134.23;1714245;83;20866;-58
2022/09/20 03:41:04;;;;;;;4.50;1.83;;;;;;;13.08;100.00;100123.99;1714366;83;21134;-56
2022/09/20 03:43:56;;;;;;;7.07;2.40;;;;;;;13.61;100.00;100113.97;1713839;83;22036;-58
2022/09/20 03:46:30;;;;;;;4.83;2.40;;;;;;;14.65;100.00;100119.41;1714091;83;21764;-56
2022/09/20 03:49:33;;;;;;;4.20;2.27;;;;;;;14.65;100.00;100119.41;1713581;83;21250;-63
2022/09/20 03:52:39;;;;;;;4.07;2.30;;;;;;;15.45;100.00;100117.40;1713633;83;21708;-57
2022/09/20 03:55:24;;;;;;;6.50;2.43;;;;;;;16.08;100.00;100122.36;1698323;83;21031;-55
2022/09/20 03:58:05;;;;;;;5.10;2.50;;;;;;;16.47;100.00;100121.52;1712332;83;21511;-61
2022/09/20 04:00:41;;;;;;;4.37;2.07;;;;;;;16.51;100.00;100122.67;1714328;83;21633;-55
2022/09/20 04:03:37;;;;;;;6.13;2.53;;;;;;;16.19;100.00;100122.92;1713733;83;21494;-62
2022/09/20 04:06:15;;;;;;;3.90;2.10;;;;;;;15.67;100.00;100134.88;1719900;82;21013;-57
2022/09/20 04:09:22;;;;;;;4.23;2.30;;;;;;;15.27;100.00;100140.53;1721643;83;20999;-56
2022/09/20 04:12:23;;;;;;;5.77;2.60;;;;;;;14.85;100.00;100138.96;1721945;83;20953;-59
2022/09/20 04:15:07;;;;;;;4.23;2.30;;;;;;;14.27;100.00;100143.81;1721831;83;21071;-56
2022/09/20 04:17:49;;;;;;;4.53;2.30;;;;;;;13.88;100.00;100158.70;1721723;83;21562;-56
2022/09/20 04:20:33;;;;;;;3.92;2.05;;;;;;;13.64;100.00;100159.39;1704957;83;21511;-56
2022/09/20 04:23:05;;;;;;;5.63;2.77;;;;;;;13.41;100.00;100161.63;1720684;83;20953;-62
2022/09/20 04:25:37;;;;;;;5.77;3.00;;;;;;;13.18;100.00;100157.59;1720743;83;21930;-58
2022/09/20 04:28:07;;;;;;;;;;;;;;;13.02;100.00;100154.08;1724809;83;22039;-57
2022/09/20 04:30:37;;;;;;;6.37;2.13;;;;;;;12.97;100.00;100153.89;1722196;83;21758;-55
2022/09/20 04:33:27;;;;;;;3.87;2.20;;;;;;;12.90;100.00;100147.34;1721243;83;21048;-64
2022/09/20 04:36:28;;;;;;;4.42;2.50;;;;;;;12.84;100.00;100150.27;1722642;83;21767;-55
2022/09/20 04:39:21;;;;;;;4.30;2.33;;;;;;;12.91;100.00;100150.25;1721729;83;21996;-56
2022/09/20 04:42:29;;;;;;;3.50;1.67;;;;;;;12.97;100.00;100143.42;1691225;84;21784;-57
2022/09/20 04:45:18;;;;;;;4.07;1.80;;;;;;;13.18;100.00;100136.66;1721855;83;21629;-56
2022/09/20 04:48:17;;;;;;;4.43;2.53;;;;;;;13.27;100.00;100134.17;1721753;83;22041;-56
2022/09/20 04:51:25;;;;;;;7.47;2.57;;;;;;;13.44;100.00;100141.59;1722775;83;20942;-64
2022/09/20 04:54:20;;;;;;;5.53;2.87;;;;;;;13.61;100.00;100147.50;1722669;83;21131;-55
2022/09/20 04:57:10;;;;;;;4.53;2.43;;;;;;;13.85;100.00;100140.77;1722858;83;21130;-56
2022/09/20 05:00:01;;;;;;;4.93;2.30;;;;;;;14.01;100.00;100140.01;1722374;83;21177;-63
2022/09/20 05:02:40;;;;;;;7.20;2.70;;;;;;;14.07;100.00;100145.23;1722930;83;21518;-56
2022/09/20 05:05:43;;;;;;;5.03;2.67;;;;;;;14.16;100.00;100147.09;1687259;82;21131;-60
2022/09/20 05:08:31;;;;;;;4.87;2.70;;;;;;;14.27;100.00;100145.64;1684427;85;21528;-56
2022/09/20 05:11:24;;;;;;;6.03;3.07;;;;;;;14.43;100.00;100139.09;1711847;83;21468;-57
2022/09/20 05:14:35;;;;;;;6.60;3.13;;;;;;;14.70;100.00;100139.75;1714396;83;22316;-58
2022/09/20 05:17:24;;;;;;;4.53;2.40;;;;;;;14.92;100.00;100138.38;1714871;83;21043;-57
2022/09/20 05:20:36;;;;;;;9.00;3.73;;;;;;;15.05;100.00;100133.03;1715129;83;21564;-58
2022/09/20 05:23:47;;;;;;;6.17;3.93;;;;;;;15.17;100.00;100125.25;1713979;83;20989;-57
2022/09/20 05:26:35;;;;;;;9.00;4.15;;;;;;;15.36;100.00;100124.77;1714083;83;20992;-62
2022/09/20 05:29:16;;;;;;;7.43;3.40;;;;;;;15.31;100.00;100125.42;1713922;83;21196;-55
2022/09/20 05:31:59;;;;;;;7.62;4.10;;;;;;;15.40;100.00;100132.50;1713857;83;21046;-59
2022/09/20 05:34:59;;;;;;;9.03;4.43;;;;;;;15.58;100.00;100135.66;1714514;83;21866;-56
2022/09/20 05:37:40;;;;;;;6.37;3.60;;;;;;;15.77;100.00;100127.30;1713706;83;21021;-59
2022/09/20 05:40:24;;;;;;;8.75;3.40;;;;;;;15.93;100.00;100131.14;1667577;85;21034;-55
2022/09/20 05:43:11;;;;;;;6.97;3.80;;;;;;;16.04;100.00;100132.52;1713022;83;21306;-64
2022/09/20 05:45:49;;;;;;;7.80;3.37;;;;;;;16.19;100.00;100136.59;1714287;83;20957;-56
2022/09/20 05:49:00;;;;;;;7.20;3.37;;;;;;;16.47;100.00;100132.84;1714121;83;20965;-64
2022/09/20 05:51:42;;;;;;;5.73;2.90;;;;;;;16.76;100.00;100137.81;1714369;83;21027;-57
2022/09/20 05:54:31;;;;;;;8.10;3.70;;;;;;;17.16;100.00;100150.34;1714495;83;21485;-57
2022/09/20 05:57:18;;;;;;;7.87;3.63;;;;;;;17.51;100.00;100146.37;1685245;83;22182;-57
2022/09/20 06:00:06;;;;;;;6.53;3.23;;;;;;;17.96;100.00;100130.44;1713762;83;21056;-56
2022/09/20 06:03:02;;;;;;;7.93;3.43;;;;;;;18.33;100.00;100130.83;1692311;83;20993;-66
2022/09/20 06:06:05;;;;;;;10.03;3.47;;;;;;;18.72;100.00;100140.25;1714203;83;21151;-56
2022/09/20 06:09:03;;;;;;;7.87;3.47;;;;;;;18.89;100.00;100130.48;1713137;83;21092;-57
2022/09/20 06:12:10;;;;;;;7.70;3.87;;;;;;;19.15;100.00;100138.27;1713954;83;21164;-66
2022/09/20 06:15:06;;;;;;;7.47;3.97;;;;;;;19.41;100.00;100135.98;1714188;83;21005;-57
2022/09/20 06:17:41;;;;;;;6.03;3.63;;;;;;;19.68;100.00;100142.17;1714454;83;21844;-56
2022/09/20 06:20:38;;;;;;;6.47;3.40;;;;;;;19.92;100.00;100143.24;1714796;83;21001;-57
2022/09/20 06:23:05;;;;;;;7.60;3.97;;;;;;;20.06;100.00;100141.82;1714558;83;21086;-57
2022/09/20 06:25:55;;;;;;;7.97;4.07;;;;;;;20.03;100.00;100138.34;1714061;83;21265;-57
2022/09/20 06:28:20;;;;;;;6.60;4.37;;;;;;;20.06;100.00;100137.05;1713518;83;20942;-65
2022/09/20 06:30:51;;;;;;;10.00;3.93;;;;;;;19.89;100.00;100127.89;1713746;83;21057;-56
2022/09/20 06:33:21;;;;;;;8.15;3.90;;;;;;;19.67;100.00;100126.05;1713946;83;21025;-57
2022/09/20 06:42:00;;;;;;;9.60;4.53;;;;;;;19.12;100.00;100115.48;1714043;83;20898;-58
2022/09/20 06:44:28;;;;;;;9.43;3.43;;;;;;;19.09;100.00;100119.44;1714286;83;21562;-57
2022/09/20 06:46:57;;;;;;;7.27;2.90;;;;;;;19.12;100.00;100112.32;1713595;83;21053;-64
2022/09/20 06:49:26;;;;;;;7.33;3.10;;;;;;;19.35;100.00;100109.20;1713763;83;21338;-57
2022/09/20 06:51:54;;;;;;;10.67;3.90;;;;;;;19.44;100.00;100103.25;1713774;83;21934;-58
2022/09/20 06:54:22;;;;;;;9.07;3.70;;;;;;;19.56;100.00;100101.02;1714035;83;21814;-56
2022/09/20 06:56:50;;;;;;;7.77;3.17;;;;;;;19.63;100.00;100100.34;1714019;83;21617;-62
2022/09/20 06:59:17;;;;;;;5.33;2.83;;;;;;;19.68;100.00;100094.58;1713995;83;21467;-56
2022/09/20 07:01:45;;;;;;;8.33;3.57;;;;;;;19.74;100.00;100087.52;1713760;83;21283;-64
2022/09/20 07:04:12;;;;;;;7.07;2.80;;;;;;;19.85;100.00;100086.58;1714154;83;21703;-57
2022/09/20 07:06:39;;;;;;;6.60;3.13;;;;;;;20.05;100.00;100089.95;1718817;83;20929;-57
2022/09/20 07:09:09;;;;;;;9.77;2.90;;;;;;;20.37;100.00;100091.30;1721483;83;20957;-56
2022/09/20 07:11:37;;;;;;;6.17;2.97;;;;;;;20.72;100.00;100090.05;1722514;83;21559;-55
2022/09/20 07:14:06;;;;;;;6.13;3.07;;;;;;;21.12;95.72;100095.32;1721425;83;21020;-62
2022/09/20 07:16:35;;;;;;;4.90;3.00;;;;;;;21.45;88.65;100094.73;1721976;83;21835;-55
2022/09/20 07:19:05;;;;;;;9.47;3.40;;;;;;;21.72;82.59;100091.37;1721251;83;20961;-56
2022/09/20 07:21:32;;;;;;;7.30;3.33;;;;;;;22.13;80.22;100081.39;1722105;83;21031;-56
2022/09/20 07:24:02;;;;;;;4.53;2.63;;;;;;;22.60;71.25;100082.49;1721778;83;21554;-61
2022/09/20 07:26:29;;;;;;;5.17;2.50;;;;;;;22.80;62.75;100085.12;1722038;83;21582;-65
2022/09/20 07:28:57;;;;;;;7.10;2.90;;;;;;;22.79;63.54;100083.53;1721547;83;21237;-57
2022/09/20 07:31:25;;;;;;;6.40;3.13;;;;;;;22.76;61.23;100089.38;1721833;83;22098;-56
2022/09/20 07:33:52;;;;;;;6.30;3.23;;;;;;;22.66;61.72;100081.97;1722376;83;21032;-56
2022/09/20 07:36:19;;;;;;;5.23;2.90;;;;;;;22.52;62.78;100078.52;1721903;83;21495;-56
2022/09/20 07:38:48;;;;;;;6.33;3.00;;;;;;;22.52;63.68;100081.17;1722373;83;21808;-56
2022/09/20 07:41:17;;;;;;;6.67;3.10;;;;;;;22.54;64.01;100072.92;1721458;83;21291;-57
2022/09/20 07:43:45;;;;;;;7.80;2.90;;;;;;;22.77;64.41;100079.57;1721838;83;21545;-56
2022/09/20 07:46:12;;;;;;;5.10;2.83;;;;;;;23.11;61.27;100076.31;1721253;83;20973;-57
2022/09/20 07:48:39;;;;;;;6.63;2.77;;;;;;;23.45;60.67;100072.47;1721852;83;21390;-56
2022/09/20 07:51:09;;;;;;;6.17;2.90;;;;;;;24.00;58.18;100068.75;1721569;83;21535;-65
2022/09/20 07:53:37;;;;;;;8.03;3.00;;;;;;;24.61;53.84;100068.83;1722068;83;21215;-56
2022/09/20 07:56:08;;;;;;;5.87;3.17;;;;;;;24.96;51.96;100066.38;1721710;83;21463;-59
2022/09/20 07:58:35;;;;;;;7.57;3.00;;;;;;;25.19;49.47;100066.66;1722142;83;22015;-56
2022/09/20 08:01:08;;;;;;;6.27;3.23;;;;;;;25.42;49.13;100061.86;1721720;83;20981;-58
2022/09/20 08:03:36;;;;;;;6.60;3.17;;;;;;;25.58;46.84;100057.11;1722016;83;21542;-56
2022/09/20 08:06:09;;;;;;;6.50;3.30;;;;;;;25.62;46.64;100047.98;1721629;83;21270;-65
2022/09/20 08:08:39;;;;;;;7.07;3.20;;;;;;;25.47;45.03;100048.98;1722022;83;21461;-56
2022/09/20 08:11:10;;;;;;;5.75;2.83;;;;;;;25.18;44.09;100046.41;1721493;83;21222;-67
2022/09/20 08:13:40;;;;;;;4.78;2.92;;;;;;;24.95;44.37;100047.42;1722139;83;28195;-56
2022/09/20 08:16:09;;;;;;;5.53;3.07;;;;;;;24.86;43.94;100043.80;1721753;83;20981;-57
2022/09/20 08:18:36;;;;;;;6.13;3.07;;;;;;;24.60;46.57;100037.94;1722032;83;21539;-55
2022/09/20 08:21:07;;;;;;;7.07;3.77;;;;;;;24.76;46.94;100030.57;1721684;83;20992;-57
2022/09/20 08:23:40;;;;;;;6.53;3.27;;;;;;;24.70;47.71;100031.17;1722430;83;21052;-55
2022/09/20 08:26:11;;;;;;;6.30;3.37;;;;;;;24.85;46.10;100023.56;1722026;83;21054;-56
2022/09/20 08:28:38;;;;;;;8.60;3.40;;;;;;;24.89;47.61;100032.58;1722091;83;21020;-59
2022/09/20 08:31:13;;;;;;;5.83;3.30;;;;;;;25.08;48.49;100033.15;1722230;83;21527;-56
2022/09/20 08:33:40;;;;;;;7.17;3.90;;;;;;;25.13;47.69;100034.47;1721865;83;20962;-65
2022/09/20 08:36:11;;;;;;;6.03;2.93;;;;;;;25.24;47.88;100029.27;1722061;83;20933;-55
2022/09/20 08:38:38;;;;;;;8.38;3.55;;;;;;;25.53;45.54;100015.00;1721795;83;21786;-64
2022/09/20 08:41:14;;;;;;;8.10;3.80;;;;;;;25.43;43.88;100007.41;1721992;83;21632;-55
2022/09/20 08:43:50;;;;;;;7.23;3.37;;;;;;;25.48;44.63;100001.98;1721498;83;21154;-57
2022/09/20 08:46:20;;;;;;;4.27;2.80;;;;;;;25.82;44.02;99995.66;1722179;83;21014;-57
2022/09/20 08:48:47;;;;;;;5.83;2.85;;;;;;;26.10;43.63;99987.20;1721619;83;21023;-56
2022/09/20 08:51:14;;;;;;;4.80;2.70;;;;;;;26.51;41.90;99985.71;1722084;83;21073;-56
2022/09/20 08:53:46;;;;;;;6.85;2.70;;;;;;;26.86;40.92;99986.38;1721799;83;20893;-59
2022/09/20 08:56:13;;;;;;;5.75;2.92;;;;;;;27.32;40.42;99985.45;1722042;83;21524;-65
2022/09/20 08:58:41;;;;;;;3.95;2.12;;;;;;;27.52;39.65;99979.40;1722052;83;20885;-55
2022/09/20 09:01:15;;;;;;;4.95;2.67;;;;;;;28.08;38.03;99976.75;1721755;83;21345;-56
2022/09/20 09:03:43;;;;;;;4.12;2.45;;;;;;;28.02;36.73;99969.38;1721670;83;21452;-57
2022/09/20 09:06:13;;;;;;;4.53;2.35;;;;;;;27.96;36.04;99973.30;1722236;83;21551;-61
2022/09/20 09:08:41;;;;;;;;;;;;;;;28.17;36.96;99965.52;1724088;83;21132;-55
2022/09/20 09:11:14;;;;;;;3.47;2.17;;;;;;;28.50;35.23;99962.55;1670842;83;20108;-56
2022/09/20 09:14:00;;;;;;;3.92;1.87;;;;;;;28.72;34.00;99958.45;1722008;83;21503;-56
2022/09/20 09:16:29;;;;;;;3.30;2.00;;;;;;;28.75;33.37;99961.86;1722427;83;21127;-57
2022/09/20 09:18:56;;;;;;;5.78;1.80;;;;;;;28.65;33.30;99964.81;1722037;83;20997;-56
2022/09/20 09:21:26;;;;;;;2.85;1.70;;;;;;;28.14;33.52;99965.58;1692964;83;21495;-55
2022/09/20 09:24:08;;;;;;;3.10;1.45;;;;;;;28.06;33.39;99965.53;1722365;83;20941;-65
2022/09/20 09:26:42;;;;;;;3.35;1.50;;;;;;;27.37;33.30;99959.91;1722373;83;20953;-56
2022/09/20 09:29:21;;;;;;;4.15;2.42;;;;;;;27.04;33.28;99961.92;1722208;83;21146;-55
2022/09/20 09:31:51;;;;;;;3.60;2.10;;;;;;;26.61;33.70;99972.16;1721754;83;21719;-57
2022/09/20 09:34:28;;;;;;;3.80;1.75;;;;;;;26.33;33.77;99949.92;1722109;83;21892;-58
2022/09/20 09:36:55;;;;;;;3.87;2.00;;;;;;;26.28;33.13;99960.16;1722042;83;21957;-56
2022/09/20 09:39:27;;;;;;;3.47;1.50;;;;;;;26.15;32.98;99960.40;1722037;83;21790;-63
2022/09/20 09:41:54;;;;;;;3.30;1.40;;;;;;;26.00;32.95;99954.53;1721875;83;21657;-56
2022/09/20 09:44:26;;;;;;;2.05;0.95;;;;;;;26.01;31.96;99945.42;1721566;83;21043;-56
2022/09/20 09:46:55;;;;;;;1.65;0.98;;;;;;;26.43;31.45;99944.39;1722169;83;21812;-55
2022/09/20 09:49:26;;;;;;;3.20;1.60;;;;;;;26.83;31.26;99930.81;1721792;83;21067;-55
2022/09/20 09:52:05;;;;;;;2.80;1.17;;;;;;;27.56;29.80;99937.53;1722027;83;21578;-56
2022/09/20 09:54:37;;;;;;;2.52;1.30;;;;;;;27.79;29.55;99927.09;1722396;83;21047;-56
2022/09/20 09:57:19;;;;;;;1.95;1.00;;;;;;;27.90;29.46;99932.98;1722245;83;20957;-65
2022/09/20 10:00:00;;;;;;;2.20;1.22;;;;;;;28.16;30.13;99935.80;1722116;83;21332;-65
2022/09/20 10:03:08;;;;;;;1.70;1.00;;;;;;;28.64;28.50;99933.74;1722313;83;20937;-55
2022/09/20 10:06:18;;;;;;;2.17;0.80;;;;;;;29.03;28.93;99931.55;1722336;83;20977;-56
2022/09/20 10:09:20;;;;;;;2.25;1.07;;;;;;;29.13;26.50;99927.75;1721583;83;21045;-63
2022/09/20 10:11:59;;;;;;;;;;;;;;;28.78;27.15;99925.55;1724676;83;21294;-56
2022/09/20 10:14:49;;;;;;;3.15;2.00;;;;;;;28.99;27.67;99921.77;1720818;83;21671;-56
2022/09/20 10:17:36;;;;;;;2.40;1.37;;;;;;;28.93;27.03;99922.98;1722212;83;21017;-56
2022/09/20 10:20:30;;;;;;;2.77;1.70;;;;;;;28.97;27.49;99906.48;1722019;83;21139;-56
2022/09/20 10:23:23;;;;;;;1.80;1.00;;;;;;;29.16;27.02;99905.66;1722085;83;21488;-66
2022/09/20 10:26:05;;;;;;;1.57;0.95;;;;;;;29.24;26.95;99900.84;1722026;83;20973;-65
2022/09/20 10:28:50;;;;;;;1.90;1.07;;;;;;;29.18;25.82;99898.09;1721558;83;21241;-66
2022/09/20 10:31:43;;;;;;;1.95;1.07;;;;;;;28.93;26.72;99887.54;1721967;83;20973;-56
2022/09/20 10:34:30;;;;;;;3.25;1.27;;;;;;;28.69;26.45;99886.65;1721345;83;20952;-57
2022/09/20 10:36:58;;;;;;;1.90;1.10;;;;;;;28.53;27.46;99890.88;1721235;83;21004;-56
2022/09/20 10:39:39;;;;;;;2.20;0.95;;;;;;;28.72;27.20;99877.98;1721459;83;21012;-57
2022/09/20 10:45:30;;;;;;;3.00;1.37;;;;;;;28.68;27.00;99882.39;1721662;83;20093;-65
2022/09/20 10:48:32;;;;;;;2.70;1.47;;;;;;;28.58;27.22;99877.32;1722266;83;21005;-56
2022/09/20 10:51:03;;;;;;;1.45;1.00;;;;;;;28.84;27.37;99871.45;1722129;83;21079;-55
2022/09/20 10:54:02;;;;;;;11.03;9.90;;;;;;;28.70;26.18;99864.08;1722232;83;21024;-56
2022/09/20 10:56:39;;;;;;;12.47;11.18;;;;;;;28.31;26.41;99865.70;1722312;83;22405;-56
2022/09/20 10:59:33;;;;;;;2.77;1.47;;;;;;;28.00;27.11;99866.31;1722227;83;21009;-57
2022/09/20 11:02:26;;;;;;;2.02;1.17;;;;;;;27.91;26.54;99863.56;1722398;83;21123;-56
2022/09/20 11:05:17;;;;;;;1.72;0.95;;;;;;;27.57;26.51;99853.44;1699649;83;20973;-63
2022/09/20 11:08:12;;;;;;;11.20;7.80;;;;;;;27.38;27.34;99843.70;1719480;83;20996;-57
2022/09/20 11:10:58;;;;;;;29.37;22.52;;;;;;;27.53;27.87;99845.77;1715202;83;21257;-58
2022/09/20 11:13:45;;;;;;;4.95;3.35;;;;;;;27.51;27.10;99845.30;1714309;83;21019;-57
2022/09/20 11:16:17;;;;;;;6.15;1.87;;;;;;;27.29;28.00;99843.42;1715200;83;21808;-57
2022/09/20 11:19:01;;;;;;;44.05;30.05;;;;;;;27.05;28.79;99839.66;1715118;83;21475;-57
2022/09/20 11:21:41;;;;;;;19.73;11.48;;;;;;;27.10;29.30;99836.33;1713800;83;21008;-66
2022/09/20 11:24:34;;;;;;;28.60;17.10;;;;;;;27.06;28.63;99832.67;1714019;83;21251;-57
2022/09/20 11:27:35;;;;;;;69.97;42.10;;;;;;;26.93;28.59;99841.00;1714330;83;21116;-66
2022/09/20 11:30:07;;;;;;;62.05;41.65;;;;;;;26.73;29.05;99840.65;1714634;83;21075;-57
2022/09/20 11:32:45;;;;;;;60.73;41.42;;;;;;;26.51;30.05;99834.69;1714328;83;21084;-64
2022/09/20 11:35:24;;;;;;;47.75;35.98;;;;;;;26.43;30.21;99842.83;1713287;83;21701;-57
2022/09/20 11:38:15;;;;;;;20.20;13.15;;;;;;;26.38;29.62;99831.71;1714881;83;21111;-56
2022/09/20 11:40:54;;;;;;;57.73;41.13;;;;;;;26.19;30.00;99833.70;1714239;83;21373;-57
2022/09/20 11:43:21;;;;;;;53.37;37.10;;;;;;;26.00;30.49;99835.67;1709967;83;21009;-56
2022/09/20 11:45:51;;;;;;;62.30;45.13;;;;;;;25.79;30.35;99833.91;1714167;83;21057;-66
2022/09/20 11:48:50;;;;;;;64.97;48.63;;;;;;;25.68;31.19;99831.41;1713510;83;21059;-57
2022/09/20 11:51:41;;;;;;;88.87;63.47;;;;;;;25.76;31.08;99837.12;1714639;83;21272;-56
2022/09/20 11:54:38;;;;;;;19.93;12.43;;;;;;;25.73;31.48;99833.98;1714143;83;46171;-57
2022/09/20 11:57:06;;;;;;;4.37;2.30;;;;;;;25.66;31.54;99832.77;1713650;83;21071;-56
2022/09/20 11:59:37;;;;;;;3.57;1.80;;;;;;;25.51;31.86;99831.70;1715007;83;21397;-55
2022/09/20 12:02:08;;;;;;;14.53;9.47;;;;;;;25.39;31.99;99834.28;1714816;83;20929;-56
2022/09/20 12:04:36;;;;;;;14.33;9.33;;;;;;;25.20;31.65;99834.31;1701689;83;21913;-56
2022/09/20 12:07:23;;;;;;;26.40;18.90;;;;;;;24.95;31.65;99827.98;1713034;82;20950;-58
2022/09/20 12:10:01;;;;;;;12.70;9.07;;;;;;;24.79;32.93;99826.63;1722925;83;21013;-55
2022/09/20 12:12:47;;;;;;;10.70;6.60;;;;;;;24.71;32.92;99824.85;1693941;83;21005;-59
2022/09/20 12:15:40;;;;;;;16.00;10.03;;;;;;;24.61;32.90;99834.85;1721976;83;21119;-56
2022/09/20 12:18:32;;;;;;;22.40;15.00;;;;;;;24.45;33.16;99830.26;1693054;83;21164;-57
2022/09/20 12:21:08;;;;;;;14.47;9.00;;;;;;;24.40;33.46;99833.78;1722686;83;21414;-56
2022/09/20 12:23:42;;;;;;;25.43;15.23;;;;;;;24.34;33.68;99829.55;1721895;83;21494;-64
2022/09/20 12:26:21;;;;;;;8.10;4.27;;;;;;;24.28;33.63;99830.16;1722788;83;21437;-56
2022/09/20 12:28:50;;;;;;;10.83;5.77;;;;;;;24.26;33.71;99822.98;1722937;83;21514;-55
2022/09/20 12:31:30;;;;;;;6.27;3.67;;;;;;;24.26;34.46;99825.64;1721842;83;21240;-65
2022/09/20 12:34:03;;;;;;;4.37;2.73;;;;;;;24.28;34.88;99819.52;1721986;83;20980;-56
2022/09/20 12:36:34;;;;;;;3.27;1.97;;;;;;;24.39;33.95;99824.19;1722079;83;21095;-55
2022/09/20 12:39:12;;;;;;;2.72;1.37;;;;;;;24.34;34.44;99822.89;1721653;83;21080;-56
2022/09/20 12:42:01;;;;;;;4.33;1.80;;;;;;;24.33;34.09;99819.19;1722125;83;22031;-56